sensor_id;sensor_type;location;lat;lon;timestamp;pressure;altitude;pressure_sealevel;temperature;humidity
31681;BME280;18281;51.364;9.566;2024-03-22T00:00:19;100611.59;;;4.15;100.00
31681;BME280;18281;51.364;9.566;2024-03-22T00:02:44;100606.69;;;3.99;100.00
31681;BME280;18281;51.364;9.566;2024-03-22T00:05:10;100603.13;;;4.05;100.00
31681;BME280;18281;51.364;9.566;2024-03-22T00:07:35;100610.81;;;4.11;100.00
31681;BME280;18281;51.364;9.566;2024-03-22T00:10:01;100603.66;;;4.22;100.00
31681;BME280;18281;51.364;9.566;2024-03-22T00:12:27;100595.31;;;4.05;100.00
31681;BME280;18281;51.364;9.566;2024-03-22T00:14:52;100584.75;;;4.14;100.00
31681;BME280;18281;51.364;9.566;2024-03-22T00:17:20;100585.66;;;4.12;100.00
31681;BME280;18281;51.364;9.566;2024-03-22T00:19:45;100580.31;;;4.19;100.00
31681;BME280;18281;51.364;9.566;2024-03-22T00:22:10;100577.09;;;4.06;100.00
31681;BME280;18281;51.364;9.566;2024-03-22T00:24:36;100573.59;;;4.09;100.00
31681;BME280;18281;51.364;9.566;2024-03-22T00:27:01;100571.63;;;4.22;100.00
31681;BME280;18281;51.364;9.566;2024-03-22T00:29:26;100572.81;;;4.04;100.00
31681;BME280;18281;51.364;9.566;2024-03-22T00:31:52;100576.44;;;3.97;100.00
31681;BME280;18281;51.364;9.566;2024-03-22T00:34:17;100579.88;;;3.97;100.00
31681;BME280;18281;51.364;9.566;2024-03-22T00:36:42;100571.81;;;4.11;100.00
31681;BME280;18281;51.364;9.566;2024-03-22T00:39:08;100563.16;;;4.11;100.00
31681;BME280;18281;51.364;9.566;2024-03-22T00:41:33;100565.16;;;3.98;100.00
31681;BME280;18281;51.364;9.566;2024-03-22T00:43:59;100558.97;;;4.03;100.00
31681;BME280;18281;51.364;9.566;2024-03-22T00:46:24;100562.31;;;4.10;100.00
31681;BME280;18281;51.364;9.566;2024-03-22T00:48:49;100563.09;;;4.15;100.00
31681;BME280;18281;51.364;9.566;2024-03-22T00:51:15;100563.13;;;4.14;100.00
31681;BME280;18281;51.364;9.566;2024-03-22T00:53:40;100563.84;;;4.20;100.00
31681;BME280;18281;51.364;9.566;2024-03-22T00:56:06;100554.31;;;4.21;100.00
31681;BME280;18281;51.364;9.566;2024-03-22T00:58:31;100555.47;;;4.06;100.00
31681;BME280;18281;51.364;9.566;2024-03-22T01:00:56;100552.88;;;4.06;100.00
31681;BME280;18281;51.364;9.566;2024-03-22T01:03:22;100540.81;;;4.02;100.00
31681;BME280;18281;51.364;9.566;2024-03-22T01:05:48;100540.72;;;4.06;100.00
31681;BME280;18281;51.364;9.566;2024-03-22T01:08:14;100544.97;;;4.11;100.00
31681;BME280;18281;51.364;9.566;2024-03-22T01:10:40;100542.66;;;3.97;100.00
31681;BME280;18281;51.364;9.566;2024-03-22T01:13:05;100535.75;;;3.96;100.00
31681;BME280;18281;51.364;9.566;2024-03-22T01:15:31;100536.41;;;4.07;100.00
31681;BME280;18281;51.364;9.566;2024-03-22T01:17:56;100536.50;;;4.01;100.00
31681;BME280;18281;51.364;9.566;2024-03-22T01:20:22;100540.59;;;4.13;100.00
31681;BME280;18281;51.364;9.566;2024-03-22T01:22:47;100535.69;;;3.97;100.00
31681;BME280;18281;51.364;9.566;2024-03-22T01:25:12;100534.59;;;4.09;100.00
31681;BME280;18281;51.364;9.566;2024-03-22T01:27:38;100541.41;;;4.16;100.00
31681;BME280;18281;51.364;9.566;2024-03-22T01:30:04;100540.38;;;4.23;100.00
31681;BME280;18281;51.364;9.566;2024-03-22T01:32:29;100535.19;;;4.23;100.00
31681;BME280;18281;51.364;9.566;2024-03-22T01:34:54;100540.16;;;3.91;100.00
31681;BME280;18281;51.364;9.566;2024-03-22T01:37:20;100542.75;;;3.91;100.00
31681;BME280;18281;51.364;9.566;2024-03-22T01:39:45;100535.78;;;3.94;100.00
31681;BME280;18281;51.364;9.566;2024-03-22T01:42:11;100537.16;;;4.11;100.00
31681;BME280;18281;51.364;9.566;2024-03-22T01:44:36;100532.22;;;3.98;100.00
31681;BME280;18281;51.364;9.566;2024-03-22T01:47:02;100535.81;;;3.93;100.00
31681;BME280;18281;51.364;9.566;2024-03-22T01:49:28;100532.00;;;4.09;100.00
31681;BME280;18281;51.364;9.566;2024-03-22T01:51:53;100527.06;;;3.97;100.00
31681;BME280;18281;51.364;9.566;2024-03-22T01:54:20;100525.50;;;3.89;100.00
31681;BME280;18281;51.364;9.566;2024-03-22T01:56:46;100528.81;;;3.96;100.00
31681;BME280;18281;51.364;9.566;2024-03-22T01:59:12;100523.09;;;3.77;100.00
31681;BME280;18281;51.364;9.566;2024-03-22T02:01:38;100523.53;;;4.01;100.00
31681;BME280;18281;51.364;9.566;2024-03-22T02:04:03;100509.50;;;4.10;100.00
31681;BME280;18281;51.364;9.566;2024-03-22T02:06:29;100499.97;;;4.09;100.00
31681;BME280;18281;51.364;9.566;2024-03-22T02:08:55;100504.41;;;4.03;100.00
31681;BME280;18281;51.364;9.566;2024-03-22T02:11:21;100490.88;;;4.28;100.00
31681;BME280;18281;51.364;9.566;2024-03-22T02:13:47;100491.69;;;4.32;100.00
31681;BME280;18281;51.364;9.566;2024-03-22T02:16:12;100487.03;;;4.07;100.00
31681;BME280;18281;51.364;9.566;2024-03-22T02:18:37;100476.25;;;4.26;100.00
31681;BME280;18281;51.364;9.566;2024-03-22T02:21:03;100468.75;;;4.10;100.00
31681;BME280;18281;51.364;9.566;2024-03-22T02:23:36;100472.84;;;4.22;100.00
31681;BME280;18281;51.364;9.566;2024-03-22T02:26:02;100462.63;;;4.14;100.00
31681;BME280;18281;51.364;9.566;2024-03-22T02:28:28;100451.41;;;4.12;100.00
31681;BME280;18281;51.364;9.566;2024-03-22T02:30:54;100453.25;;;4.07;100.00
31681;BME280;18281;51.364;9.566;2024-03-22T02:33:19;100455.69;;;4.13;100.00
31681;BME280;18281;51.364;9.566;2024-03-22T02:35:48;100456.38;;;4.23;100.00
31681;BME280;18281;51.364;9.566;2024-03-22T02:38:14;100452.91;;;4.22;100.00
31681;BME280;18281;51.364;9.566;2024-03-22T02:40:39;100451.19;;;4.21;100.00
31681;BME280;18281;51.364;9.566;2024-03-22T02:43:04;100447.59;;;4.29;100.00
31681;BME280;18281;51.364;9.566;2024-03-22T02:45:31;100447.59;;;4.29;100.00
31681;BME280;18281;51.364;9.566;2024-03-22T02:47:56;100435.06;;;4.07;100.00
31681;BME280;18281;51.364;9.566;2024-03-22T02:50:22;100437.50;;;4.13;100.00
31681;BME280;18281;51.364;9.566;2024-03-22T02:52:50;100435.06;;;4.07;100.00
31681;BME280;18281;51.364;9.566;2024-03-22T02:55:16;100428.13;;;4.08;100.00
31681;BME280;18281;51.364;9.566;2024-03-22T02:57:42;100424.47;;;4.15;100.00
31681;BME280;18281;51.364;9.566;2024-03-22T03:00:07;100418.75;;;4.00;100.00
31681;BME280;18281;51.364;9.566;2024-03-22T03:02:33;100411.41;;;4.19;100.00
31681;BME280;18281;51.364;9.566;2024-03-22T03:04:58;100414.09;;;4.15;100.00
31681;BME280;18281;51.364;9.566;2024-03-22T03:07:25;100411.91;;;4.35;100.00
31681;BME280;18281;51.364;9.566;2024-03-22T03:09:50;100416.31;;;4.32;100.00
31681;BME280;18281;51.364;9.566;2024-03-22T03:12:15;100415.47;;;4.31;100.00
31681;BME280;18281;51.364;9.566;2024-03-22T03:14:41;100403.34;;;4.30;100.00
31681;BME280;18281;51.364;9.566;2024-03-22T03:17:07;100411.19;;;4.29;100.00
31681;BME280;18281;51.364;9.566;2024-03-22T03:19:32;100406.28;;;4.16;100.00
31681;BME280;18281;51.364;9.566;2024-03-22T03:21:57;100396.28;;;3.98;100.00
31681;BME280;18281;51.364;9.566;2024-03-22T03:24:23;100391.91;;;4.00;100.00
31681;BME280;18281;51.364;9.566;2024-03-22T03:26:48;100384.25;;;3.94;100.00
31681;BME280;18281;51.364;9.566;2024-03-22T03:29:14;100387.78;;;4.29;100.00
31681;BME280;18281;51.364;9.566;2024-03-22T03:31:40;100389.09;;;4.09;100.00
31681;BME280;18281;51.364;9.566;2024-03-22T03:34:05;100389.88;;;4.13;100.00
31681;BME280;18281;51.364;9.566;2024-03-22T03:36:30;100389.84;;;4.14;100.00
31681;BME280;18281;51.364;9.566;2024-03-22T03:38:56;100379.28;;;4.22;100.00
31681;BME280;18281;51.364;9.566;2024-03-22T03:41:21;100379.38;;;4.17;100.00
31681;BME280;18281;51.364;9.566;2024-03-22T03:43:47;100376.22;;;4.04;100.00
31681;BME280;18281;51.364;9.566;2024-03-22T03:46:12;100377.91;;;4.07;100.00
31681;BME280;18281;51.364;9.566;2024-03-22T03:48:37;100376.84;;;4.14;100.00
31681;BME280;18281;51.364;9.566;2024-03-22T03:51:03;100376.31;;;4.37;100.00
31681;BME280;18281;51.364;9.566;2024-03-22T03:53:29;100372.03;;;4.35;100.00
31681;BME280;18281;51.364;9.566;2024-03-22T03:55:55;100368.19;;;4.15;100.00
31681;BME280;18281;51.364;9.566;2024-03-22T03:58:20;100368.72;;;4.30;100.00
31681;BME280;18281;51.364;9.566;2024-03-22T04:00:46;100363.41;;;4.34;100.00
31681;BME280;18281;51.364;9.566;2024-03-22T04:03:11;100355.34;;;4.08;100.00
31681;BME280;18281;51.364;9.566;2024-03-22T04:05:37;100359.25;;;4.27;100.00
31681;BME280;18281;51.364;9.566;2024-03-22T04:08:02;100344.94;;;4.09;100.00
31681;BME280;18281;51.364;9.566;2024-03-22T04:10:28;100350.66;;;4.23;100.00
31681;BME280;18281;51.364;9.566;2024-03-22T04:12:53;100350.44;;;4.33;100.00
31681;BME280;18281;51.364;9.566;2024-03-22T04:15:18;100342.28;;;4.12;100.00
31681;BME280;18281;51.364;9.566;2024-03-22T04:17:44;100350.44;;;4.33;100.00
31681;BME280;18281;51.364;9.566;2024-03-22T04:20:10;100349.13;;;4.51;100.00
31681;BME280;18281;51.364;9.566;2024-03-22T04:22:36;100343.34;;;4.39;100.00
31681;BME280;18281;51.364;9.566;2024-03-22T04:25:02;100345.75;;;4.47;100.00
31681;BME280;18281;51.364;9.566;2024-03-22T04:27:27;100338.06;;;4.43;100.00
31681;BME280;18281;51.364;9.566;2024-03-22T04:29:52;100339.22;;;4.31;100.00
31681;BME280;18281;51.364;9.566;2024-03-22T04:32:18;100345.28;;;4.31;100.00
31681;BME280;18281;51.364;9.566;2024-03-22T04:34:44;100338.25;;;4.35;100.00
31681;BME280;18281;51.364;9.566;2024-03-22T04:37:09;100336.25;;;4.46;100.00
31681;BME280;18281;51.364;9.566;2024-03-22T04:39:37;100338.94;;;4.42;100.00
31681;BME280;18281;51.364;9.566;2024-03-22T04:42:02;100336.66;;;4.29;100.00
31681;BME280;18281;51.364;9.566;2024-03-22T04:44:28;100329.59;;;4.34;100.00
31681;BME280;18281;51.364;9.566;2024-03-22T04:46:54;100328.91;;;4.28;100.00
31681;BME280;18281;51.364;9.566;2024-03-22T04:49:19;100328.84;;;4.29;100.00
31681;BME280;18281;51.364;9.566;2024-03-22T04:51:44;100326.16;;;4.34;100.00
31681;BME280;18281;51.364;9.566;2024-03-22T04:54:10;100327.53;;;4.49;100.00
31681;BME280;18281;51.364;9.566;2024-03-22T04:56:35;100323.28;;;4.45;100.00
31681;BME280;18281;51.364;9.566;2024-03-22T04:59:00;100327.84;;;4.36;100.00
31681;BME280;18281;51.364;9.566;2024-03-22T05:01:26;100323.44;;;4.38;100.00
31681;BME280;18281;51.364;9.566;2024-03-22T05:03:51;100329.47;;;4.41;100.00
31681;BME280;18281;51.364;9.566;2024-03-22T05:06:17;100322.50;;;4.41;100.00
31681;BME280;18281;51.364;9.566;2024-03-22T05:08:42;100317.16;;;4.47;100.00
31681;BME280;18281;51.364;9.566;2024-03-22T05:11:08;100310.28;;;4.45;100.00
31681;BME280;18281;51.364;9.566;2024-03-22T05:13:33;100308.44;;;4.48;100.00
31681;BME280;18281;51.364;9.566;2024-03-22T05:15:58;100301.47;;;4.50;100.00
31681;BME280;18281;51.364;9.566;2024-03-22T05:18:24;100290.38;;;4.44;100.00
31681;BME280;18281;51.364;9.566;2024-03-22T05:20:49;100297.44;;;4.38;100.00
31681;BME280;18281;51.364;9.566;2024-03-22T05:23:15;100291.06;;;4.50;100.00
31681;BME280;18281;51.364;9.566;2024-03-22T05:25:42;100282.22;;;4.57;100.00
31681;BME280;18281;51.364;9.566;2024-03-22T05:28:07;100273.38;;;4.65;100.00
31681;BME280;18281;51.364;9.566;2024-03-22T05:30:33;100274.84;;;4.73;100.00
31681;BME280;18281;51.364;9.566;2024-03-22T05:32:58;100274.81;;;4.75;100.00
31681;BME280;18281;51.364;9.566;2024-03-22T05:35:24;100271.63;;;4.65;100.00
31681;BME280;18281;51.364;9.566;2024-03-22T05:37:49;100276.47;;;4.79;100.00
31681;BME280;18281;51.364;9.566;2024-03-22T05:40:16;100268.16;;;4.65;100.00
31681;BME280;18281;51.364;9.566;2024-03-22T05:42:42;100267.84;;;4.77;100.00
31681;BME280;18281;51.364;9.566;2024-03-22T05:45:07;100270.19;;;4.86;100.00
31681;BME280;18281;51.364;9.566;2024-03-22T05:47:33;100263.31;;;4.84;100.00
31681;BME280;18281;51.364;9.566;2024-03-22T05:50:00;100262.59;;;4.79;100.00
31681;BME280;18281;51.364;9.566;2024-03-22T05:52:25;100258.94;;;4.84;100.00
31681;BME280;18281;51.364;9.566;2024-03-22T05:54:50;100258.06;;;4.85;100.00
31681;BME280;18281;51.364;9.566;2024-03-22T05:57:16;100253.59;;;4.90;100.00
31681;BME280;18281;51.364;9.566;2024-03-22T05:59:42;100253.69;;;4.87;100.00
31681;BME280;18281;51.364;9.566;2024-03-22T06:02:07;100259.03;;;4.81;100.00
31681;BME280;18281;51.364;9.566;2024-03-22T06:04:32;100253.22;;;4.73;100.00
31681;BME280;18281;51.364;9.566;2024-03-22T06:06:58;100251.13;;;4.86;100.00
31681;BME280;18281;51.364;9.566;2024-03-22T06:09:26;100245.63;;;4.95;100.00
31681;BME280;18281;51.364;9.566;2024-03-22T06:12:12;100240.72;;;5.74;100.00
31681;BME280;18281;51.364;9.566;2024-03-22T06:14:41;100243.97;;;6.60;100.00
31681;BME280;18281;51.364;9.566;2024-03-22T06:17:08;100235.53;;;7.02;100.00
31681;BME280;18281;51.364;9.566;2024-03-22T06:19:34;100225.03;;;7.27;100.00
31681;BME280;18281;51.364;9.566;2024-03-22T06:22:00;100228.66;;;7.45;100.00
31681;BME280;18281;51.364;9.566;2024-03-22T06:24:25;100232.94;;;7.70;100.00
31681;BME280;18281;51.364;9.566;2024-03-22T06:26:50;100230.13;;;7.74;100.00
31681;BME280;18281;51.364;9.566;2024-03-22T06:29:16;100223.63;;;7.85;100.00
31681;BME280;18281;51.364;9.566;2024-03-22T06:31:42;100216.03;;;7.99;100.00
31681;BME280;18281;51.364;9.566;2024-03-22T06:34:07;100220.66;;;8.15;100.00
31681;BME280;18281;51.364;9.566;2024-03-22T06:36:32;100218.69;;;8.20;100.00
31681;BME280;18281;51.364;9.566;2024-03-22T06:38:58;100218.25;;;7.88;100.00
31681;BME280;18281;51.364;9.566;2024-03-22T06:41:24;100215.25;;;7.54;100.00
31681;BME280;18281;51.364;9.566;2024-03-22T06:43:51;100222.91;;;7.13;100.00
31681;BME280;18281;51.364;9.566;2024-03-22T06:46:17;100215.63;;;7.23;100.00
31681;BME280;18281;51.364;9.566;2024-03-22T06:48:42;100226.91;;;7.00;100.00
31681;BME280;18281;51.364;9.566;2024-03-22T06:51:08;100221.06;;;7.17;100.00
31681;BME280;18281;51.364;9.566;2024-03-22T06:53:34;100221.91;;;7.17;100.00
31681;BME280;18281;51.364;9.566;2024-03-22T06:55:59;100220.94;;;7.20;100.00
31681;BME280;18281;51.364;9.566;2024-03-22T06:58:25;100228.28;;;7.10;100.00
31681;BME280;18281;51.364;9.566;2024-03-22T07:00:50;100217.53;;;7.18;100.00
31681;BME280;18281;51.364;9.566;2024-03-22T07:03:15;100224.44;;;7.19;100.00
31681;BME280;18281;51.364;9.566;2024-03-22T07:05:42;100207.16;;;7.16;100.00
31681;BME280;18281;51.364;9.566;2024-03-22T07:08:08;100210.47;;;7.20;100.00
31681;BME280;18281;51.364;9.566;2024-03-22T07:10:33;100212.00;;;7.26;100.00
31681;BME280;18281;51.364;9.566;2024-03-22T07:12:59;100204.28;;;7.22;100.00
31681;BME280;18281;51.364;9.566;2024-03-22T07:15:24;100203.31;;;7.25;100.00
31681;BME280;18281;51.364;9.566;2024-03-22T07:17:50;100199.81;;;7.26;100.00
31681;BME280;18281;51.364;9.566;2024-03-22T07:20:16;100197.97;;;7.28;100.00
31681;BME280;18281;51.364;9.566;2024-03-22T07:22:42;100200.56;;;7.30;100.00
31681;BME280;18281;51.364;9.566;2024-03-22T07:25:08;100198.50;;;7.38;100.00
31681;BME280;18281;51.364;9.566;2024-03-22T07:27:35;100201.88;;;7.40;100.00
31681;BME280;18281;51.364;9.566;2024-03-22T07:30:01;100196.59;;;7.41;100.00
31681;BME280;18281;51.364;9.566;2024-03-22T07:32:26;100195.44;;;7.49;100.00
31681;BME280;18281;51.364;9.566;2024-03-22T07:34:51;100188.09;;;7.58;100.00
31681;BME280;18281;51.364;9.566;2024-03-22T07:37:17;100182.63;;;7.65;100.00
31681;BME280;18281;51.364;9.566;2024-03-22T07:39:42;100189.97;;;7.77;100.00
31681;BME280;18281;51.364;9.566;2024-03-22T07:42:07;100186.97;;;7.86;100.00
31681;BME280;18281;51.364;9.566;2024-03-22T07:44:33;100184.81;;;7.96;100.00
31681;BME280;18281;51.364;9.566;2024-03-22T07:46:58;100185.69;;;7.97;100.00
31681;BME280;18281;51.364;9.566;2024-03-22T07:49:23;100191.81;;;7.96;100.00
31681;BME280;18281;51.364;9.566;2024-03-22T07:51:49;100182.41;;;7.91;100.00
31681;BME280;18281;51.364;9.566;2024-03-22T07:54:15;100184.22;;;7.89;100.00
31681;BME280;18281;51.364;9.566;2024-03-22T07:56:40;100176.44;;;7.88;100.00
31681;BME280;18281;51.364;9.566;2024-03-22T07:59:06;100180.88;;;7.86;100.00
31681;BME280;18281;51.364;9.566;2024-03-22T08:01:31;100170.53;;;7.83;100.00
31681;BME280;18281;51.364;9.566;2024-03-22T08:03:57;100174.03;;;7.83;100.00
31681;BME280;18281;51.364;9.566;2024-03-22T08:06:22;100173.47;;;7.75;100.00
31681;BME280;18281;51.364;9.566;2024-03-22T08:08:47;100175.72;;;7.84;100.00
31681;BME280;18281;51.364;9.566;2024-03-22T08:11:13;100164.34;;;7.65;100.00
31681;BME280;18281;51.364;9.566;2024-03-22T08:13:38;100163.47;;;7.64;100.00
31681;BME280;18281;51.364;9.566;2024-03-22T08:16:04;100169.97;;;7.76;100.00
31681;BME280;18281;51.364;9.566;2024-03-22T08:18:30;100164.34;;;7.85;100.00
31681;BME280;18281;51.364;9.566;2024-03-22T08:20:58;100156.19;;;7.93;100.00
31681;BME280;18281;51.364;9.566;2024-03-22T08:23:24;100158.34;;;8.04;100.00
31681;BME280;18281;51.364;9.566;2024-03-22T08:25:49;100165.56;;;8.19;100.00
31681;BME280;18281;51.364;9.566;2024-03-22T08:28:15;100153.56;;;8.14;100.00
31681;BME280;18281;51.364;9.566;2024-03-22T08:30:41;100163.13;;;8.15;100.00
31681;BME280;18281;51.364;9.566;2024-03-22T08:33:07;100153.78;;;8.09;100.00
31681;BME280;18281;51.364;9.566;2024-03-22T08:35:33;100150.88;;;8.15;100.00
31681;BME280;18281;51.364;9.566;2024-03-22T08:37:58;100146.94;;;8.25;100.00
31681;BME280;18281;51.364;9.566;2024-03-22T08:40:24;100141.72;;;8.25;100.00
31681;BME280;18281;51.364;9.566;2024-03-22T08:42:50;100139.97;;;8.26;100.00
31681;BME280;18281;51.364;9.566;2024-03-22T08:45:15;100128.94;;;8.19;100.00
31681;BME280;18281;51.364;9.566;2024-03-22T08:47:42;100123.41;;;8.25;100.00
31681;BME280;18281;51.364;9.566;2024-03-22T08:50:08;100129.63;;;8.23;100.00
31681;BME280;18281;51.364;9.566;2024-03-22T08:52:33;100121.00;;;8.21;100.00
31681;BME280;18281;51.364;9.566;2024-03-22T08:55:00;100135.00;;;8.20;100.00
31681;BME280;18281;51.364;9.566;2024-03-22T08:57:26;100118.84;;;8.31;100.00
31681;BME280;18281;51.364;9.566;2024-03-22T08:59:51;100123.25;;;8.29;100.00
31681;BME280;18281;51.364;9.566;2024-03-22T09:02:17;100117.84;;;8.33;100.00
31681;BME280;18281;51.364;9.566;2024-03-22T09:04:42;100112.63;;;8.33;100.00
31681;BME280;18281;51.364;9.566;2024-03-22T09:07:07;100110.41;;;8.24;100.00
31681;BME280;18281;51.364;9.566;2024-03-22T09:09:33;100109.88;;;8.36;100.00
31681;BME280;18281;51.364;9.566;2024-03-22T09:11:58;100099.34;;;8.38;100.00
31681;BME280;18281;51.364;9.566;2024-03-22T09:14:23;100094.19;;;8.36;100.00
31681;BME280;18281;51.364;9.566;2024-03-22T09:16:49;100088.88;;;8.38;100.00
31681;BME280;18281;51.364;9.566;2024-03-22T09:19:14;100069.66;;;8.39;100.00
31681;BME280;18281;51.364;9.566;2024-03-22T09:21:40;100070.56;;;8.38;100.00
31681;BME280;18281;51.364;9.566;2024-03-22T09:24:05;100076.38;;;8.45;100.00
31681;BME280;18281;51.364;9.566;2024-03-22T09:26:32;100070.16;;;8.47;100.00
31681;BME280;18281;51.364;9.566;2024-03-22T09:28:58;100075.31;;;8.49;100.00
31681;BME280;18281;51.364;9.566;2024-03-22T09:31:23;100059.19;;;8.58;100.00
31681;BME280;18281;51.364;9.566;2024-03-22T09:33:49;100062.53;;;8.62;100.00
31681;BME280;18281;51.364;9.566;2024-03-22T09:36:14;100058.44;;;8.56;100.00
31681;BME280;18281;51.364;9.566;2024-03-22T09:38:39;100060.34;;;8.52;100.00
31681;BME280;18281;51.364;9.566;2024-03-22T09:41:05;100056.66;;;8.56;100.00
31681;BME280;18281;51.364;9.566;2024-03-22T09:43:31;100055.97;;;8.53;100.00
31681;BME280;18281;51.364;9.566;2024-03-22T09:45:57;100069.72;;;8.56;100.00
31681;BME280;18281;51.364;9.566;2024-03-22T09:48:23;100067.03;;;8.58;100.00
31681;BME280;18281;51.364;9.566;2024-03-22T09:50:49;100059.81;;;8.63;100.00
31681;BME280;18281;51.364;9.566;2024-03-22T09:53:19;100052.69;;;8.67;100.00
31681;BME280;18281;51.364;9.566;2024-03-22T09:55:46;100044.25;;;8.79;100.00
31681;BME280;18281;51.364;9.566;2024-03-22T09:58:12;100044.97;;;8.83;100.00
31681;BME280;18281;51.364;9.566;2024-03-22T10:00:38;100038.66;;;8.87;100.00
31681;BME280;18281;51.364;9.566;2024-03-22T10:03:03;100027.28;;;8.88;100.00
31681;BME280;18281;51.364;9.566;2024-03-22T10:05:29;100033.81;;;8.97;100.00
31681;BME280;18281;51.364;9.566;2024-03-22T10:07:55;100027.00;;;8.75;100.00
31681;BME280;18281;51.364;9.566;2024-03-22T10:10:21;100037.81;;;8.86;100.00
31681;BME280;18281;51.364;9.566;2024-03-22T10:12:47;100021.78;;;8.93;100.00
31681;BME280;18281;51.364;9.566;2024-03-22T10:15:13;100022.88;;;8.88;100.00
31681;BME280;18281;51.364;9.566;2024-03-22T10:17:39;100014.81;;;9.11;100.00
31681;BME280;18281;51.364;9.566;2024-03-22T10:20:05;100019.66;;;9.18;100.00
31681;BME280;18281;51.364;9.566;2024-03-22T10:22:42;100005.34;;;9.08;100.00
31681;BME280;18281;51.364;9.566;2024-03-22T10:25:09;100014.59;;;9.15;100.00
31681;BME280;18281;51.364;9.566;2024-03-22T10:27:34;100014.19;;;9.05;100.00
31681;BME280;18281;51.364;9.566;2024-03-22T10:30:06;100002.09;;;9.20;100.00
31681;BME280;18281;51.364;9.566;2024-03-22T10:32:33;100008.44;;;9.34;100.00
31681;BME280;18281;51.364;9.566;2024-03-22T10:35:02;100009.59;;;9.28;100.00
31681;BME280;18281;51.364;9.566;2024-03-22T10:37:30;100002.28;;;9.35;100.00
31681;BME280;18281;51.364;9.566;2024-03-22T10:39:58;100002.66;;;9.27;100.00
31681;BME280;18281;51.364;9.566;2024-03-22T10:42:23;99999.03;;;9.47;100.00
31681;BME280;18281;51.364;9.566;2024-03-22T10:44:49;100002.34;;;9.51;100.00
31681;BME280;18281;51.364;9.566;2024-03-22T10:47:17;99989.06;;;9.54;100.00
31681;BME280;18281;51.364;9.566;2024-03-22T10:49:45;99982.47;;;9.64;100.00
31681;BME280;18281;51.364;9.566;2024-03-22T10:52:12;99980.50;;;9.68;100.00
31681;BME280;18281;51.364;9.566;2024-03-22T10:54:40;99978.00;;;9.82;100.00
31681;BME280;18281;51.364;9.566;2024-03-22T10:57:13;99988.28;;;9.69;100.00
31681;BME280;18281;51.364;9.566;2024-03-22T10:59:41;99964.81;;;9.84;100.00
31681;BME280;18281;51.364;9.566;2024-03-22T11:02:11;99971.69;;;9.86;100.00
31681;BME280;18281;51.364;9.566;2024-03-22T11:04:36;99964.16;;;9.96;100.00
31681;BME280;18281;51.364;9.566;2024-03-22T11:07:02;99960.78;;;9.94;100.00
31681;BME280;18281;51.364;9.566;2024-03-22T11:09:33;99953.53;;;9.99;100.00
31681;BME280;18281;51.364;9.566;2024-03-22T11:11:59;99947.88;;;10.07;100.00
31681;BME280;18281;51.364;9.566;2024-03-22T11:14:27;99935.75;;;10.04;100.00
31681;BME280;18281;51.364;9.566;2024-03-22T11:16:53;99924.16;;;10.24;100.00
31681;BME280;18281;51.364;9.566;2024-03-22T11:19:19;99929.47;;;10.39;100.00
31681;BME280;18281;51.364;9.566;2024-03-22T11:21:44;99918.63;;;10.45;100.00
31681;BME280;18281;51.364;9.566;2024-03-22T11:24:10;99915.72;;;10.50;100.00
31681;BME280;18281;51.364;9.566;2024-03-22T11:26:36;99912.19;;;10.51;100.00
31681;BME280;18281;51.364;9.566;2024-03-22T11:29:02;99902.94;;;10.59;100.00
31681;BME280;18281;51.364;9.566;2024-03-22T11:31:28;99905.66;;;10.58;100.00
31681;BME280;18281;51.364;9.566;2024-03-22T11:33:54;99900.13;;;10.63;100.00
31681;BME280;18281;51.364;9.566;2024-03-22T11:36:20;99894.78;;;10.64;100.00
31681;BME280;18281;51.364;9.566;2024-03-22T11:38:46;99895.28;;;10.71;100.00
31681;BME280;18281;51.364;9.566;2024-03-22T11:41:14;99892.16;;;10.80;100.00
31681;BME280;18281;51.364;9.566;2024-03-22T11:43:42;99878.28;;;10.92;100.00
31681;BME280;18281;51.364;9.566;2024-03-22T11:46:11;99888.91;;;10.91;100.00
31681;BME280;18281;51.364;9.566;2024-03-22T11:48:40;99884.41;;;10.93;100.00
31681;BME280;18281;51.364;9.566;2024-03-22T11:51:09;99873.47;;;11.01;100.00
31681;BME280;18281;51.364;9.566;2024-03-22T11:53:37;99874.09;;;11.04;100.00
31681;BME280;18281;51.364;9.566;2024-03-22T11:56:04;99871.03;;;11.12;100.00
31681;BME280;18281;51.364;9.566;2024-03-22T11:58:30;99872.81;;;11.12;100.00
31681;BME280;18281;51.364;9.566;2024-03-22T12:00:58;99866.59;;;11.13;100.00
31681;BME280;18281;51.364;9.566;2024-03-22T12:03:24;99864.06;;;11.11;100.00
31681;BME280;18281;51.364;9.566;2024-03-22T12:05:53;99858.16;;;11.22;100.00
31681;BME280;18281;51.364;9.566;2024-03-22T12:08:19;99848.13;;;11.14;100.00
31681;BME280;18281;51.364;9.566;2024-03-22T12:10:44;99843.44;;;11.19;100.00
31681;BME280;18281;51.364;9.566;2024-03-22T12:13:12;99840.44;;;11.25;100.00
31681;BME280;18281;51.364;9.566;2024-03-22T12:15:37;99838.19;;;11.34;100.00
31681;BME280;18281;51.364;9.566;2024-03-22T12:18:03;99838.84;;;11.37;100.00
31681;BME280;18281;51.364;9.566;2024-03-22T12:20:28;99824.25;;;11.46;99.59
31681;BME280;18281;51.364;9.566;2024-03-22T12:22:54;99829.00;;;11.41;99.66
31681;BME280;18281;51.364;9.566;2024-03-22T12:25:20;99816.34;;;11.61;99.53
31681;BME280;18281;51.364;9.566;2024-03-22T12:27:46;99808.88;;;11.54;99.37
31681;BME280;18281;51.364;9.566;2024-03-22T12:30:12;99807.19;;;11.53;100.00
31681;BME280;18281;51.364;9.566;2024-03-22T12:32:37;99805.28;;;11.55;99.51
31681;BME280;18281;51.364;9.566;2024-03-22T12:35:03;99807.16;;;11.68;98.48
31681;BME280;18281;51.364;9.566;2024-03-22T12:37:29;99801.69;;;11.71;98.53
31681;BME280;18281;51.364;9.566;2024-03-22T12:39:54;99801.84;;;11.82;98.36
31681;BME280;18281;51.364;9.566;2024-03-22T12:42:20;99799.97;;;11.84;98.49